New River, North Carolina
Current Conditions -  °F | °C
As of 10:56 PM on Wednesday 17 Dec 2014 (Local Time) from KNCA Reporting Station
Clear Clear  
Wind Chill: 40°   Ceiling: Unl
Heat Index: 44°   Visibility: 10mi
Dew Point: 40°   Wind: 7mph
Humidity: 85%   Direction: 250°WSW
Pressure: 30.09"   Gusts: NA
Location:  34.7°N, 77.43°W
Report Text: KNCA 180356Z AUTO 25006KT 10SM CLR 07/04 A3009 RMK AO2 SLP191 T00670044
Loading
Personal Weather Stations






























Interactive Weather Map New forecast layout! Learn more

10-Day Weather Forecast

Advertisements
Track Severe Weather on mobile